Time;durP1;ratioP1;P1;durP2;ratioP2;P2;SDS_P1;SDS_P2;PMS_P1;PMS_P2;Temp;Humidity;BMP_temperature;BMP_pressure;BME280_temperature;BME280_humidity;BME280_pressure;Samples;Min_cycle;Max_cycle;Signal;HPM_P1;HPM_P2
2023/06/05 00:00:35;;;;;;;3.60;1.80;;;;;;;15.54;51.08;100112.31;5055469;28;20067;-76
2023/06/05 00:03:00;;;;;;;4.07;1.98;;;;;;;15.64;51.35;100137.09;5055060;28;20489;-77
2023/06/05 00:05:26;;;;;;;3.60;2.20;;;;;;;15.46;51.31;100105.75;5055292;28;20022;-77
2023/06/05 00:07:52;;;;;;;6.30;1.92;;;;;;;15.41;51.29;100080.69;5055212;28;20392;-77
2023/06/05 00:10:17;;;;;;;5.13;2.33;;;;;;;15.67;51.60;100122.03;5054890;28;20028;-77
2023/06/05 00:12:44;;;;;;;2.78;2.00;;;;;;;15.62;51.70;100117.94;5054937;28;20033;-76
2023/06/05 00:15:09;;;;;;;4.80;1.98;;;;;;;15.58;52.03;100116.44;5054662;28;20025;-76
2023/06/05 00:17:36;;;;;;;4.43;1.77;;;;;;;15.38;52.38;100094.88;5054757;28;20372;-77
2023/06/05 00:20:02;;;;;;;2.90;2.10;;;;;;;15.60;52.54;100132.97;5054716;28;20036;-76
2023/06/05 00:22:28;;;;;;;3.35;1.80;;;;;;;15.50;52.68;100121.31;5054766;28;20029;-77
2023/06/05 00:24:53;;;;;;;3.17;2.08;;;;;;;15.41;52.85;100106.94;5054473;28;20033;-77
2023/06/05 00:27:19;;;;;;;3.30;2.30;;;;;;;15.52;53.01;100130.78;5054715;28;20028;-77
2023/06/05 00:29:45;;;;;;;2.72;1.88;;;;;;;15.45;53.37;100125.03;5054582;28;20052;-77
2023/06/05 00:32:10;;;;;;;3.20;2.03;;;;;;;15.51;53.07;100126.47;5054271;28;20087;-77
2023/06/05 00:34:36;;;;;;;4.88;2.10;;;;;;;15.37;53.52;100098.41;5054517;28;20048;-77
2023/06/05 00:37:01;;;;;;;2.22;2.03;;;;;;;15.27;53.46;100073.66;5054194;28;20033;-77
2023/06/05 00:39:26;;;;;;;2.80;2.35;;;;;;;15.40;53.78;100090.34;5054540;28;20412;-77
2023/06/05 00:41:52;;;;;;;2.80;2.00;;;;;;;15.57;53.69;100122.63;5054335;28;20025;-76
2023/06/05 00:44:18;;;;;;;2.67;2.00;;;;;;;15.41;53.79;100089.41;5054239;28;20120;-76
2023/06/05 00:46:43;;;;;;;3.28;1.58;;;;;;;15.38;53.93;100094.88;5053964;28;20035;-76
2023/06/05 00:49:09;;;;;;;2.83;1.98;;;;;;;15.43;54.07;100099.84;5053970;28;20025;-76
2023/06/05 00:51:35;;;;;;;2.50;2.20;;;;;;;15.46;54.13;100099.63;5054325;28;20029;-76
2023/06/05 00:54:01;;;;;;;2.42;2.03;;;;;;;15.47;54.44;100110.06;5053915;28;20475;-77
2023/06/05 00:56:27;;;;;;;4.28;2.28;;;;;;;15.41;54.48;100093.81;5054191;28;20028;-76
2023/06/05 00:58:53;;;;;;;2.42;1.90;;;;;;;15.47;54.46;100112.69;5053822;28;20029;-76
2023/06/05 01:01:20;;;;;;;3.85;2.20;;;;;;;15.41;54.74;100099.91;5053953;28;20025;-76
2023/06/05 01:03:47;;;;;;;4.45;1.80;;;;;;;15.32;54.63;100084.72;5053905;28;20083;-77
2023/06/05 01:06:13;;;;;;;3.08;2.00;;;;;;;15.27;54.97;100085.94;5053857;28;20029;-77
2023/06/05 01:08:39;;;;;;;3.05;1.98;;;;;;;15.41;54.99;100110.41;5053995;28;20036;-77
2023/06/05 01:11:25;;;;;;;2.88;2.00;;;;;;;15.35;54.98;100108.16;5053788;28;20487;-77
2023/06/05 01:14:00;;;;;;;1.98;1.77;;;;;;;15.29;55.32;100100.63;5053949;28;20029;-76
2023/06/05 01:16:30;;;;;;;3.08;1.83;;;;;;;15.23;55.46;100099.22;5053960;28;20078;-77
2023/06/05 01:19:02;;;;;;;2.13;1.90;;;;;;;15.16;55.56;100081.31;5053490;28;20078;-77
2023/06/05 01:21:31;;;;;;;4.00;2.67;;;;;;;15.10;55.63;100071.19;5053730;28;20073;-76
2023/06/05 01:23:57;;;;;;;2.45;2.15;;;;;;;15.21;55.79;100095.00;5053362;28;20589;-77
2023/06/05 01:26:30;;;;;;;3.22;1.95;;;;;;;15.06;55.80;100067.88;5053491;28;20025;-77
2023/06/05 01:28:58;;;;;;;3.80;2.20;;;;;;;15.03;55.80;100070.69;5053367;28;20063;-77
2023/06/05 01:31:26;;;;;;;3.20;2.05;;;;;;;14.86;55.94;100041.97;5053483;28;20028;-77
2023/06/05 01:34:01;;;;;;;2.80;2.30;;;;;;;15.09;56.13;100087.84;5053662;28;20052;-77
2023/06/05 01:36:28;;;;;;;3.05;2.17;;;;;;;15.08;56.02;100076.50;5053248;28;20028;-77
2023/06/05 01:38:54;;;;;;;2.17;1.67;;;;;;;15.10;56.33;100090.38;5052699;28;20028;-77
2023/06/05 01:41:21;;;;;;;8.50;2.30;;;;;;;14.90;56.39;100061.84;5053268;28;20036;-77
2023/06/05 01:43:48;;;;;;;2.80;2.00;;;;;;;14.98;56.60;100088.47;5053356;28;20035;-76
2023/06/05 01:46:18;;;;;;;3.83;2.05;;;;;;;14.85;56.44;100061.25;5051687;28;20037;-77
2023/06/05 01:48:44;;;;;;;2.72;2.25;;;;;;;14.86;56.66;100076.06;5053182;28;20039;-76
2023/06/05 01:51:10;;;;;;;3.05;2.10;;;;;;;14.82;56.56;100058.81;5052836;28;20087;-76
2023/06/05 01:53:35;;;;;;;3.10;2.17;;;;;;;14.96;56.53;100087.72;5052851;28;20540;-76
2023/06/05 01:56:02;;;;;;;2.50;2.08;;;;;;;14.91;56.78;100089.75;5052774;28;20134;-76
2023/06/05 01:58:27;;;;;;;5.20;2.15;;;;;;;14.90;56.61;100082.81;5052898;28;20025;-76
2023/06/05 02:00:54;;;;;;;2.35;1.85;;;;;;;14.88;56.77;100080.28;5053036;28;20028;-76
2023/06/05 02:03:20;;;;;;;2.30;1.80;;;;;;;14.86;56.84;100084.75;5052582;28;20028;-76
2023/06/05 02:05:46;;;;;;;3.10;2.30;;;;;;;14.72;56.81;100058.50;5052727;28;20029;-76
2023/06/05 02:08:13;;;;;;;2.88;2.53;;;;;;;14.66;57.08;100064.06;5052395;28;20043;-76
2023/06/05 02:10:42;;;;;;;3.70;2.17;;;;;;;14.78;57.09;100080.91;5052802;28;20028;-77
2023/06/05 02:13:08;;;;;;;3.00;2.00;;;;;;;14.75;57.33;100081.94;5052279;28;20394;-76
2023/06/05 02:15:34;;;;;;;2.83;2.20;;;;;;;14.68;57.48;100081.44;5052598;28;20021;-76
2023/06/05 02:18:00;;;;;;;3.40;2.10;;;;;;;14.61;57.25;100064.34;5052346;28;20416;-76
2023/06/05 02:20:26;;;;;;;3.10;2.20;;;;;;;14.70;57.33;100078.69;5052435;28;20032;-76
2023/06/05 02:22:51;;;;;;;3.40;2.00;;;;;;;14.65;57.62;100075.50;5052392;28;20039;-76
2023/06/05 02:25:18;;;;;;;3.25;2.30;;;;;;;14.44;57.53;100046.06;5052315;28;20059;-77
2023/06/05 02:27:43;;;;;;;2.60;2.20;;;;;;;14.38;58.17;100051.66;5052426;28;20040;-76
2023/06/05 02:30:09;;;;;;;2.88;2.25;;;;;;;14.34;58.31;100040.50;5052277;28;20029;-76
2023/06/05 02:32:35;;;;;;;2.97;2.20;;;;;;;14.42;58.40;100053.19;5052213;28;20040;-76
2023/06/05 02:35:02;;;;;;;4.53;2.30;;;;;;;14.51;58.36;100084.16;5051998;28;20033;-77
2023/06/05 02:37:28;;;;;;;4.60;2.47;;;;;;;14.26;58.43;100053.19;5052094;28;20506;-76
2023/06/05 02:39:53;;;;;;;3.33;2.33;;;;;;;14.40;58.63;100068.13;5052235;28;20036;-76
2023/06/05 02:42:19;;;;;;;2.75;2.03;;;;;;;14.35;58.67;100055.28;5052107;28;20578;-77
2023/06/05 02:44:45;;;;;;;3.75;2.55;;;;;;;14.28;58.87;100059.19;5052161;28;20033;-76
2023/06/05 02:47:11;;;;;;;4.30;2.40;;;;;;;14.44;58.95;100088.00;5051813;28;20029;-76
2023/06/05 02:49:37;;;;;;;2.38;2.17;;;;;;;14.44;58.93;100085.38;5051157;28;20021;-76
2023/06/05 02:52:03;;;;;;;5.25;2.40;;;;;;;14.42;58.95;100082.00;5051490;28;20108;-77
2023/06/05 02:54:28;;;;;;;5.05;2.50;;;;;;;14.20;58.90;100056.16;5052122;28;20459;-76
2023/06/05 02:56:56;;;;;;;4.97;2.75;;;;;;;14.27;58.95;100048.78;5050685;28;20112;-76
2023/06/05 02:59:24;;;;;;;7.20;2.90;;;;;;;14.40;59.21;100082.09;5051711;28;20029;-76
2023/06/05 03:01:50;;;;;;;3.75;2.35;;;;;;;14.36;58.85;100079.72;5052100;28;20021;-76
2023/06/05 03:04:20;;;;;;;2.58;2.25;;;;;;;14.40;59.09;100076.84;5051686;28;20021;-76
2023/06/05 03:06:49;;;;;;;3.15;2.30;;;;;;;14.36;59.01;100071.84;5052131;28;20440;-76
2023/06/05 03:09:14;;;;;;;3.15;2.45;;;;;;;14.39;59.09;100077.78;5051816;28;20423;-76
2023/06/05 03:11:40;;;;;;;2.97;2.33;;;;;;;14.33;58.79;100053.72;5051960;28;20036;-76
2023/06/05 03:14:05;;;;;;;4.90;3.08;;;;;;;14.55;58.86;100087.44;5051750;28;20029;-77
2023/06/05 03:16:37;;;;;;;4.03;2.85;;;;;;;14.52;58.71;100082.38;5051699;28;20071;-77
2023/06/05 03:19:02;;;;;;;5.20;2.78;;;;;;;14.31;59.11;100056.41;5051492;28;20067;-76
2023/06/05 03:21:28;;;;;;;4.88;2.72;;;;;;;14.31;58.93;100050.31;5051981;28;20025;-76
2023/06/05 03:23:53;;;;;;;3.63;2.55;;;;;;;14.31;59.13;100053.78;5051900;28;20021;-76
2023/06/05 03:26:18;;;;;;;2.80;2.30;;;;;;;14.44;59.23;100078.34;5051739;28;20068;-76
2023/06/05 03:28:44;;;;;;;3.53;2.50;;;;;;;14.47;59.36;100078.19;5051693;28;20025;-76
2023/06/05 03:31:10;;;;;;;4.68;2.67;;;;;;;14.52;59.13;100079.75;5051418;28;20063;-77
2023/06/05 03:33:35;;;;;;;5.65;2.65;;;;;;;14.45;59.09;100063.47;5051353;28;20053;-77
2023/06/05 03:36:01;;;;;;;3.22;2.53;;;;;;;14.54;58.98;100080.50;5051789;28;20029;-76
2023/06/05 03:38:27;;;;;;;3.10;2.28;;;;;;;14.60;59.15;100090.66;5051616;28;20025;-76
2023/06/05 03:40:52;;;;;;;6.13;2.50;;;;;;;14.51;58.95;100060.56;5051944;28;20083;-76
2023/06/05 03:43:17;;;;;;;5.18;2.92;;;;;;;14.44;59.15;100040.84;5051601;28;20116;-77
2023/06/05 03:45:43;;;;;;;4.05;2.70;;;;;;;14.75;58.99;100081.06;5051533;28;20372;-76
2023/06/05 03:48:11;;;;;;;3.63;2.30;;;;;;;14.63;59.22;100052.00;5051306;28;20439;-77
2023/06/05 03:50:41;;;;;;;3.80;2.50;;;;;;;14.84;59.15;100091.06;5051745;28;20025;-77
2023/06/05 03:53:08;;;;;;;3.38;2.20;;;;;;;14.88;59.26;100090.78;5051314;28;20469;-76
2023/06/05 03:55:41;;;;;;;3.22;2.33;;;;;;;15.01;59.06;100090.09;5051455;28;20116;-76
2023/06/05 03:58:15;;;;;;;4.25;2.40;;;;;;;15.13;58.98;100092.00;5051263;28;20112;-77
2023/06/05 04:00:45;;;;;;;4.00;2.65;;;;;;;15.19;58.51;100095.09;5051473;28;20033;-76
2023/06/05 04:03:12;;;;;;;5.03;2.75;;;;;;;15.26;58.58;100087.72;5054956;28;20035;-76
2023/06/05 04:05:39;;;;;;;4.10;2.50;;;;;;;15.34;58.31;100088.09;5055230;28;20032;-77
2023/06/05 04:08:05;;;;;;;5.30;2.47;;;;;;;15.54;58.02;100071.13;5055369;28;20476;-76
2023/06/05 04:10:31;;;;;;;3.03;2.47;;;;;;;15.84;57.50;100092.09;5055389;28;20032;-77
2023/06/05 04:12:56;;;;;;;3.55;2.60;;;;;;;16.02;57.25;100068.28;5055051;28;20117;-77
2023/06/05 04:15:25;;;;;;;3.78;2.47;;;;;;;16.36;56.65;100064.34;5054790;28;20104;-77
2023/06/05 04:17:51;;;;;;;3.78;2.58;;;;;;;17.03;55.70;100065.25;5055066;28;20039;-77
2023/06/05 04:20:16;;;;;;;3.75;2.40;;;;;;;17.99;53.48;100076.22;5054836;28;20025;-77
2023/06/05 04:22:43;;;;;;;4.32;2.10;;;;;;;19.28;50.84;100088.78;5054780;28;20111;-77
2023/06/05 04:25:15;;;;;;;3.47;2.72;;;;;;;20.60;48.53;100083.75;5054552;28;20477;-77
2023/06/05 04:27:42;;;;;;;3.45;2.65;;;;;;;21.09;47.25;100061.19;5054854;28;20029;-77
2023/06/05 04:30:09;;;;;;;3.78;2.45;;;;;;;21.32;46.79;100070.72;5054634;28;20028;-77
2023/06/05 04:32:37;;;;;;;6.25;3.05;;;;;;;21.08;47.20;100091.28;5054710;28;20025;-78
2023/06/05 04:35:03;;;;;;;5.43;2.65;;;;;;;20.56;48.41;100090.25;5054757;28;20483;-77
2023/06/05 04:37:28;;;;;;;5.07;2.67;;;;;;;20.36;48.94;100108.56;5054407;28;20033;-77
2023/06/05 04:39:54;;;;;;;4.32;2.80;;;;;;;20.11;49.18;100095.63;5054997;28;20533;-77
2023/06/05 04:42:21;;;;;;;5.68;2.47;;;;;;;20.24;48.93;100077.81;5053986;28;20074;-77
2023/06/05 04:44:56;;;;;;;5.30;2.72;;;;;;;20.75;48.53;100087.81;5054820;28;20033;-77
2023/06/05 04:47:22;;;;;;;3.47;2.58;;;;;;;21.97;46.66;100100.47;5054386;28;20044;-77
2023/06/05 04:49:49;;;;;;;6.18;3.13;;;;;;;23.02;45.21;100098.22;5054672;28;20021;-77
2023/06/05 04:52:14;;;;;;;5.95;3.15;;;;;;;23.46;44.12;100095.91;5054524;28;20037;-77
2023/06/05 04:54:39;;;;;;;3.88;2.67;;;;;;;22.90;44.10;100081.59;5054541;28;20032;-77
2023/06/05 04:57:05;;;;;;;5.30;2.53;;;;;;;22.24;45.26;100099.06;5054295;28;20106;-77
2023/06/05 04:59:32;;;;;;;8.10;2.83;;;;;;;21.47;46.06;100070.38;5054377;28;20538;-77
2023/06/05 05:01:57;;;;;;;3.10;2.65;;;;;;;21.02;46.97;100095.28;5054628;28;20068;-77
2023/06/05 05:04:23;;;;;;;8.18;3.50;;;;;;;20.83;47.26;100080.09;5054241;28;20476;-77
2023/06/05 05:06:51;;;;;;;6.22;3.45;;;;;;;20.86;47.21;100098.38;5054298;28;20449;-77
2023/06/05 05:09:16;;;;;;;7.72;3.10;;;;;;;21.65;46.40;100082.88;5052661;28;20036;-77
2023/06/05 05:11:42;;;;;;;6.55;3.25;;;;;;;22.54;44.45;100074.25;5054247;28;20025;-75
2023/06/05 05:14:07;;;;;;;3.92;2.50;;;;;;;23.53;43.47;100090.88;5053548;28;20029;-76
2023/06/05 05:16:32;;;;;;;8.45;3.03;;;;;;;23.70;43.17;100071.53;5053596;28;20025;-76
2023/06/05 05:18:58;;;;;;;3.78;2.83;;;;;;;23.44;43.35;100076.63;5054119;28;20036;-76
2023/06/05 05:21:23;;;;;;;6.38;3.00;;;;;;;23.09;44.22;100067.47;5053692;28;20032;-76
2023/06/05 05:23:48;;;;;;;3.47;3.00;;;;;;;23.03;44.30;100104.38;5054173;28;20031;-76
2023/06/05 05:26:14;;;;;;;4.07;2.97;;;;;;;23.03;43.99;100099.91;5053978;28;20094;-77
2023/06/05 05:28:39;;;;;;;3.53;3.08;;;;;;;23.29;43.88;100100.16;5054053;28;20116;-76
2023/06/05 05:31:05;;;;;;;5.18;3.05;;;;;;;23.77;42.68;100106.38;5054021;28;20056;-77
2023/06/05 05:33:30;;;;;;;5.38;3.00;;;;;;;24.76;42.13;100080.78;5053788;28;20049;-76
2023/06/05 05:35:56;;;;;;;7.28;3.05;;;;;;;25.39;40.93;100080.66;5053783;28;20491;-76
2023/06/05 05:38:21;;;;;;;4.70;3.05;;;;;;;25.35;40.08;100070.44;5053804;28;20033;-76
2023/06/05 05:40:46;;;;;;;4.93;3.17;;;;;;;24.66;41.50;100082.69;5053550;28;20029;-76
2023/06/05 05:43:12;;;;;;;7.28;3.05;;;;;;;24.12;42.54;100098.53;5053453;28;20056;-76
2023/06/05 05:45:39;;;;;;;5.28;3.13;;;;;;;23.63;43.20;100113.78;5053719;28;20025;-76
2023/06/05 05:48:05;;;;;;;5.15;2.92;;;;;;;23.25;43.88;100111.22;5053347;28;20075;-76
2023/06/05 05:50:30;;;;;;;5.80;3.17;;;;;;;22.96;44.84;100093.47;5053204;28;20036;-76
2023/06/05 05:52:56;;;;;;;6.00;3.13;;;;;;;22.79;44.06;100088.81;5053415;28;20048;-76
2023/06/05 05:55:21;;;;;;;3.92;2.83;;;;;;;22.88;44.82;100102.13;5052988;28;20100;-76
2023/06/05 05:57:46;;;;;;;4.72;3.38;;;;;;;23.10;44.85;100108.16;5053351;28;20047;-76
2023/06/05 06:00:12;;;;;;;3.95;2.75;;;;;;;23.10;45.14;100100.19;5053187;28;20045;-76
2023/06/05 06:02:39;;;;;;;4.50;3.10;;;;;;;23.21;44.91;100092.03;5053308;28;20029;-76
2023/06/05 06:05:05;;;;;;;5.95;3.15;;;;;;;23.21;44.93;100105.34;5052998;28;20480;-76
2023/06/05 06:07:31;;;;;;;8.73;3.00;;;;;;;23.36;44.50;100103.94;5053288;28;20473;-76
2023/06/05 06:09:57;;;;;;;4.32;2.70;;;;;;;23.72;44.19;100108.63;5053226;28;20291;-76
2023/06/05 06:12:22;;;;;;;3.95;2.85;;;;;;;23.83;44.16;100084.50;5052940;28;20625;-76
2023/06/05 06:14:48;;;;;;;4.55;2.78;;;;;;;24.24;43.95;100096.50;5053106;28;20504;-76
2023/06/05 06:17:14;;;;;;;5.40;3.15;;;;;;;24.40;43.74;100085.25;5052408;28;20036;-76
2023/06/05 06:19:40;;;;;;;4.32;2.95;;;;;;;24.81;43.15;100106.94;5052617;28;20059;-76
2023/06/05 06:22:11;;;;;;;5.47;3.28;;;;;;;24.76;42.87;100109.25;5052564;28;20033;-76
2023/06/05 06:24:37;;;;;;;5.68;3.13;;;;;;;25.26;42.75;100106.88;5052318;28;20488;-76
2023/06/05 06:27:02;;;;;;;4.97;3.05;;;;;;;26.02;41.72;100116.06;5052748;28;20025;-76
2023/06/05 06:29:28;;;;;;;4.05;3.10;;;;;;;26.64;40.40;100099.78;5052425;28;20021;-76
2023/06/05 06:31:54;;;;;;;6.40;2.85;;;;;;;28.68;38.46;100127.00;5052555;28;20527;-77
2023/06/05 06:34:19;;;;;;;4.25;3.20;;;;;;;30.19;37.09;100118.97;5052192;28;20473;-77
2023/06/05 06:36:46;;;;;;;3.38;2.88;;;;;;;31.08;35.80;100113.34;5052590;28;20028;-77
2023/06/05 06:39:12;;;;;;;5.18;2.70;;;;;;;32.29;34.64;100116.66;5052714;28;20507;-77
2023/06/05 06:41:38;;;;;;;3.20;2.45;;;;;;;33.44;33.18;100112.09;5052435;28;20025;-77
2023/06/05 06:44:05;;;;;;;5.53;2.90;;;;;;;34.27;32.11;100120.47;5052339;28;20396;-77
2023/06/05 06:46:31;;;;;;;4.95;3.03;;;;;;;33.61;32.17;100117.91;5052099;28;20025;-77
2023/06/05 06:48:57;;;;;;;3.22;2.65;;;;;;;33.45;32.70;100124.59;5052118;28;20032;-77
2023/06/05 06:51:22;;;;;;;4.90;2.80;;;;;;;33.70;32.75;100113.94;5051869;28;20017;-77
2023/06/05 06:53:48;;;;;;;3.08;2.72;;;;;;;34.75;31.54;100126.25;5051941;28;20029;-77
2023/06/05 06:56:21;;;;;;;3.60;2.80;;;;;;;35.30;31.23;100105.88;5052147;28;20040;-77
2023/06/05 06:58:46;;;;;;;3.05;2.67;;;;;;;36.04;30.79;100121.22;5052012;28;20488;-77
2023/06/05 07:01:13;;;;;;;5.25;2.67;;;;;;;36.94;29.95;100126.69;5052102;28;20025;-77
2023/06/05 07:03:40;;;;;;;3.42;2.80;;;;;;;37.52;29.28;100116.16;5051737;28;20029;-77
2023/06/05 07:06:05;;;;;;;3.30;2.90;;;;;;;37.53;29.15;100123.25;5051898;28;20021;-77
2023/06/05 07:08:30;;;;;;;5.03;2.45;;;;;;;36.24;30.02;100137.25;5051942;28;20029;-77
2023/06/05 07:10:56;;;;;;;3.83;3.17;;;;;;;35.33;31.17;100121.69;5052183;28;20032;-77
2023/06/05 07:13:22;;;;;;;3.33;2.40;;;;;;;34.21;31.62;100113.19;5051965;28;20028;-77
2023/06/05 07:15:48;;;;;;;2.35;2.15;;;;;;;34.75;31.32;100133.53;5051935;28;20025;-77
2023/06/05 07:18:13;;;;;;;2.65;2.45;;;;;;;35.85;30.37;100117.63;5042174;28;20056;-77
2023/06/05 07:20:39;;;;;;;3.88;2.55;;;;;;;36.79;29.96;100139.03;5040095;28;20021;-77
2023/06/05 07:23:04;;;;;;;2.67;2.47;;;;;;;36.84;29.39;100126.44;5041979;28;20514;-77
2023/06/05 07:25:33;;;;;;;4.90;2.63;;;;;;;36.42;29.49;100130.97;5036701;28;20045;-77
2023/06/05 07:27:59;;;;;;;2.42;2.22;;;;;;;37.11;28.65;100132.28;5032324;28;20072;-77
2023/06/05 07:30:25;;;;;;;4.90;2.50;;;;;;;37.41;28.68;100137.66;5031981;28;20075;-77
2023/06/05 07:32:51;;;;;;;4.10;2.40;;;;;;;37.68;28.58;100115.44;5033335;28;20067;-77
2023/06/05 07:35:16;;;;;;;4.03;2.88;;;;;;;37.57;28.45;100105.41;5034960;28;20501;-77
2023/06/05 07:37:41;;;;;;;2.85;2.30;;;;;;;38.29;28.14;100114.00;5036946;28;20037;-77
2023/06/05 07:40:08;;;;;;;2.50;2.30;;;;;;;39.28;27.65;100127.28;5043643;28;20063;-77
2023/06/05 07:42:34;;;;;;;2.58;2.38;;;;;;;39.88;27.58;100106.63;5044806;28;20071;-77
2023/06/05 07:44:59;;;;;;;6.05;2.38;;;;;;;39.98;26.95;100131.28;5045057;28;20362;-77
2023/06/05 07:47:25;;;;;;;3.03;2.47;;;;;;;39.08;27.02;100111.41;5042680;28;20087;-77
2023/06/05 07:50:00;;;;;;;3.22;2.78;;;;;;;39.26;27.21;100123.97;5040653;28;20021;-77
2023/06/05 07:52:30;;;;;;;5.07;2.83;;;;;;;39.07;27.18;100115.22;5044196;28;20017;-77
2023/06/05 07:54:55;;;;;;;4.07;2.53;;;;;;;39.54;27.23;100116.75;5055624;28;20025;-77
2023/06/05 07:57:20;;;;;;;2.88;2.58;;;;;;;39.63;27.14;100135.16;5055387;28;20047;-77
2023/06/05 07:59:48;;;;;;;4.53;2.67;;;;;;;38.88;27.01;100125.50;5055652;28;20021;-77
2023/06/05 08:02:14;;;;;;;2.67;2.40;;;;;;;38.52;26.83;100106.88;5055502;28;20033;-77
2023/06/05 08:04:40;;;;;;;4.80;2.72;;;;;;;38.99;27.18;100112.06;5055232;28;20056;-77
2023/06/05 08:07:06;;;;;;;2.80;2.60;;;;;;;38.51;26.86;100106.00;5055552;28;20063;-77
2023/06/05 08:09:33;;;;;;;4.40;2.70;;;;;;;37.52;27.12;100108.00;5055366;28;20358;-77
2023/06/05 08:11:59;;;;;;;6.40;3.45;;;;;;;36.36;28.21;100131.88;5055407;28;20108;-77
2023/06/05 08:14:24;;;;;;;5.30;2.85;;;;;;;34.30;29.53;100076.75;5054862;28;20100;-77
2023/06/05 08:16:49;;;;;;;6.95;2.92;;;;;;;33.22;30.86;100090.72;5054853;28;20427;-77
2023/06/05 08:19:15;;;;;;;4.05;2.67;;;;;;;31.99;31.96;100097.25;5055084;28;20032;-78
2023/06/05 08:21:40;;;;;;;7.07;3.08;;;;;;;31.07;32.61;100068.63;5055039;28;20433;-78
2023/06/05 08:24:06;;;;;;;5.25;2.70;;;;;;;30.00;33.99;100085.44;5055133;28;20024;-77
2023/06/05 08:26:31;;;;;;;3.72;2.50;;;;;;;29.41;34.14;100087.22;5054863;28;20036;-77
2023/06/05 08:28:57;;;;;;;3.25;2.65;;;;;;;28.96;34.92;100097.84;5055357;28;20381;-77
2023/06/05 08:31:23;;;;;;;2.65;2.22;;;;;;;28.50;35.69;100116.56;5055124;28;20082;-77
2023/06/05 08:33:48;;;;;;;2.63;2.38;;;;;;;27.63;36.13;100085.38;5054909;28;20047;-77
2023/06/05 08:36:14;;;;;;;3.95;2.30;;;;;;;27.69;35.93;100109.63;5054925;28;20020;-77
2023/06/05 08:38:39;;;;;;;4.03;2.30;;;;;;;27.22;35.66;100107.69;5055094;28;20459;-77
2023/06/05 08:41:07;;;;;;;5.80;2.80;;;;;;;26.86;36.29;100107.16;5054658;28;20025;-77
2023/06/05 08:43:39;;;;;;;5.80;2.83;;;;;;;26.70;36.93;100109.78;5054763;28;20129;-77
2023/06/05 08:46:06;;;;;;;5.35;2.47;;;;;;;26.19;37.55;100087.59;5054552;28;20100;-77
2023/06/05 08:48:37;;;;;;;4.18;2.38;;;;;;;26.22;37.86;100121.97;5053164;28;20182;-77
2023/06/05 08:51:03;;;;;;;3.42;2.40;;;;;;;25.93;37.73;100111.69;5054697;28;20520;-77
2023/06/05 08:53:34;;;;;;;2.95;2.45;;;;;;;25.72;37.57;100106.69;5054228;28;20029;-77
2023/06/05 08:56:01;;;;;;;6.57;2.80;;;;;;;25.68;37.87;100110.66;5054468;28;20071;-77
2023/06/05 08:58:27;;;;;;;3.92;2.60;;;;;;;25.76;37.28;100110.72;5053946;28;20032;-77
2023/06/05 09:00:53;;;;;;;4.68;2.33;;;;;;;25.61;36.69;100092.59;5054694;28;20036;-77
2023/06/05 09:03:20;;;;;;;3.97;2.00;;;;;;;25.48;37.35;100091.38;5054295;28;20049;-77
2023/06/05 09:05:47;;;;;;;3.85;2.10;;;;;;;25.27;37.61;100079.22;5054015;28;20025;-77
2023/06/05 09:08:14;;;;;;;3.70;2.28;;;;;;;25.26;37.47;100090.06;5054263;28;20029;-77
2023/06/05 09:10:39;;;;;;;6.30;2.50;;;;;;;25.38;37.38;100104.81;5053883;28;20021;-77
2023/06/05 09:13:04;;;;;;;4.38;2.40;;;;;;;25.19;37.38;100079.16;5054072;28;20392;-77
2023/06/05 09:15:32;;;;;;;4.45;2.55;;;;;;;25.18;36.71;100097.97;5054082;28;20021;-77
2023/06/05 09:18:11;;;;;;;5.10;2.08;;;;;;;25.17;37.24;100077.66;5052836;28;20146;-77
2023/06/05 09:20:41;;;;;;;1.77;1.65;;;;;;;25.39;35.96;100104.63;5052502;28;20033;-77
2023/06/05 09:23:26;;;;;;;3.03;2.05;;;;;;;25.27;36.13;100081.88;5047173;28;20107;-75
2023/06/05 09:25:53;;;;;;;2.70;2.10;;;;;;;25.36;36.43;100090.78;5046388;28;20049;-75
2023/06/05 09:28:19;;;;;;;3.92;2.33;;;;;;;25.13;36.18;100103.78;5033773;28;20630;-77
2023/06/05 09:30:57;;;;;;;6.72;1.88;;;;;;;25.06;36.67;100089.34;5033539;28;20026;-78
2023/06/05 09:33:23;;;;;;;2.45;2.00;;;;;;;24.80;37.20;100075.97;5038384;28;20075;-75
2023/06/05 09:36:06;;;;;;;7.28;2.30;;;;;;;24.89;36.76;100102.53;5038876;28;20056;-75
2023/06/05 09:38:32;;;;;;;4.50;3.03;;;;;;;24.97;37.48;100092.94;5041359;28;20037;-75
2023/06/05 09:41:04;;;;;;;2.65;2.45;;;;;;;25.05;36.84;100096.53;5033405;28;20029;-78
2023/06/05 09:43:29;;;;;;;4.65;2.03;;;;;;;24.91;35.75;100062.44;5039586;28;20036;-75
2023/06/05 09:45:55;;;;;;;3.47;2.10;;;;;;;24.95;36.43;100097.59;5053246;28;20377;-76
2023/06/05 09:48:20;;;;;;;3.08;2.10;;;;;;;24.70;37.14;100073.41;5053132;28;20064;-76
2023/06/05 09:50:45;;;;;;;2.55;2.33;;;;;;;24.73;37.46;100077.56;5052893;28;20025;-76
2023/06/05 09:53:15;;;;;;;3.72;2.17;;;;;;;24.63;36.71;100070.50;5053361;28;20055;-76
2023/06/05 09:55:41;;;;;;;2.90;2.20;;;;;;;24.49;36.71;100079.03;5053182;28;20017;-76
2023/06/05 09:58:13;;;;;;;2.85;2.30;;;;;;;24.36;36.62;100071.38;5053096;28;20033;-76
2023/06/05 10:00:41;;;;;;;4.85;2.35;;;;;;;24.36;37.86;100076.69;5052425;28;20427;-76
2023/06/05 10:03:10;;;;;;;5.70;2.63;;;;;;;24.30;38.00;100073.78;5052850;28;20032;-76
2023/06/05 10:05:38;;;;;;;3.33;2.25;;;;;;;24.21;38.07;100066.69;5052898;28;20020;-76
2023/06/05 10:08:05;;;;;;;2.90;2.25;;;;;;;24.34;38.70;100067.16;5053274;28;20043;-76
2023/06/05 10:10:31;;;;;;;6.13;2.80;;;;;;;24.34;38.55;100060.00;5052675;28;20075;-76
2023/06/05 10:12:57;;;;;;;8.68;2.17;;;;;;;24.49;39.01;100068.38;5052838;28;20431;-75
2023/06/05 10:15:25;;;;;;;3.97;2.28;;;;;;;24.61;37.96;100061.00;5052633;28;20507;-76
2023/06/05 10:17:50;;;;;;;4.40;2.30;;;;;;;24.50;38.21;100029.25;5052322;28;20121;-76
2023/06/05 10:20:16;;;;;;;5.18;2.55;;;;;;;24.63;38.42;100065.16;5053099;28;20048;-76
2023/06/05 10:22:43;;;;;;;3.30;2.60;;;;;;;24.64;37.96;100056.19;5052567;28;20065;-76
2023/06/05 10:25:12;;;;;;;4.28;2.30;;;;;;;24.62;37.65;100028.03;5052681;28;20114;-76
2023/06/05 10:27:37;;;;;;;4.10;2.38;;;;;;;24.78;37.42;100051.34;5052558;28;20445;-76
2023/06/05 10:30:36;;;;;;;4.35;2.67;;;;;;;24.71;38.37;100064.41;5052675;28;20104;-76
2023/06/05 10:33:20;;;;;;;5.53;2.40;;;;;;;24.61;38.11;100053.84;5052595;28;20049;-76
2023/06/05 10:36:19;;;;;;;3.80;2.35;;;;;;;24.62;38.08;100044.84;5052566;28;20033;-76
2023/06/05 10:38:45;;;;;;;5.93;2.30;;;;;;;24.30;37.83;100018.69;5052473;28;20464;-76
2023/06/05 10:41:12;;;;;;;4.22;2.55;;;;;;;24.47;38.91;100043.69;5052776;28;20489;-76
2023/06/05 10:43:47;;;;;;;3.03;2.13;;;;;;;24.62;38.21;100054.69;5052010;28;20075;-76
2023/06/05 10:46:34;;;;;;;4.20;2.08;;;;;;;24.68;37.42;100045.22;5052657;28;20279;-76
2023/06/05 10:49:17;;;;;;;5.88;2.65;;;;;;;24.81;38.06;100045.69;5052341;28;20028;-76
2023/06/05 10:51:43;;;;;;;3.55;2.42;;;;;;;24.95;37.59;100042.47;5052219;28;20029;-76
2023/06/05 10:54:24;;;;;;;3.13;2.17;;;;;;;24.88;37.69;100044.91;5052320;28;20104;-77
2023/06/05 10:56:53;;;;;;;3.17;2.37;;;;;;;24.70;37.80;100013.97;5051804;28;20052;-77
2023/06/05 10:59:22;;;;;;;2.97;2.33;;;;;;;24.84;37.46;100022.22;5052393;28;20035;-77
2023/06/05 11:02:06;;;;;;;3.25;2.70;;;;;;;25.04;37.64;100041.53;5052005;28;20021;-77
2023/06/05 11:04:46;;;;;;;5.18;2.33;;;;;;;24.98;34.83;100050.16;5052032;28;20067;-77
2023/06/05 11:07:15;;;;;;;3.30;2.00;;;;;;;24.86;35.75;100038.06;5052057;28;20480;-77
2023/06/05 11:10:06;;;;;;;4.78;2.22;;;;;;;24.96;35.52;100036.16;5052252;28;20403;-77
2023/06/05 11:12:40;;;;;;;2.28;2.05;;;;;;;25.16;35.69;100027.97;5051181;28;20472;-77
2023/06/05 11:15:16;;;;;;;3.70;2.35;;;;;;;25.23;35.54;100018.38;5051980;28;20029;-77
2023/06/05 11:17:43;;;;;;;3.60;2.63;;;;;;;25.30;35.86;100020.25;5051687;28;20025;-77
2023/06/05 11:20:28;;;;;;;4.00;2.67;;;;;;;25.38;35.19;100014.97;5051858;28;20036;-77
2023/06/05 11:22:53;;;;;;;5.82;2.45;;;;;;;25.36;35.88;100027.63;5051651;28;20435;-77
2023/06/05 11:25:24;;;;;;;3.70;2.70;;;;;;;25.43;35.80;100022.50;5052362;28;20054;-77